Time;durP1;ratioP1;P1;durP2;ratioP2;P2;SDS_P1;SDS_P2;PMS_P1;PMS_P2;Temp;Humidity;BMP_temperature;BMP_pressure;BME280_temperature;BME280_humidity;BME280_pressure;Samples;Min_cycle;Max_cycle;Signal;HPM_P1;HPM_P2
2021/10/09 00:04:17;;;;;;;63.50;58.30;;;;;;;12.57;100.00;103001.50;1940858;74;32968;-73
2021/10/09 00:09:42;;;;;;;66.50;61.07;;;;;;;12.57;100.00;103000.95;1940984;74;33474;-74
2021/10/09 00:15:08;;;;;;;65.40;60.13;;;;;;;12.49;100.00;103004.67;1940859;74;32968;-69
2021/10/09 00:20:33;;;;;;;66.07;60.77;;;;;;;12.50;100.00;102997.98;1941002;74;33554;-73
2021/10/09 00:25:57;;;;;;;63.43;58.40;;;;;;;12.13;100.00;102992.72;1941010;74;32955;-73
2021/10/09 00:31:22;;;;;;;60.93;56.03;;;;;;;12.02;100.00;102989.41;1941013;74;33124;-71
2021/10/09 00:36:46;;;;;;;61.37;56.57;;;;;;;11.87;100.00;102986.25;1940977;74;33494;-70
2021/10/09 00:42:11;;;;;;;62.83;57.70;;;;;;;12.09;100.00;102973.95;1940823;74;32943;-73
2021/10/09 00:47:42;;;;;;;65.33;60.33;;;;;;;12.08;100.00;102980.60;1940844;74;33407;-74
2021/10/09 00:53:07;;;;;;;66.10;60.83;;;;;;;11.94;100.00;102976.39;1940791;74;32943;-73
2021/10/09 00:58:34;;;;;;;64.60;59.10;;;;;;;11.91;100.00;102976.31;1940806;74;33113;-73
2021/10/09 01:04:00;;;;;;;67.23;61.63;;;;;;;11.86;100.00;102976.19;1941020;74;33474;-71
2021/10/09 01:09:25;;;;;;;63.83;58.60;;;;;;;11.63;100.00;102981.19;1940763;74;33117;-71
2021/10/09 01:14:50;;;;;;;67.40;61.70;;;;;;;11.67;100.00;102973.20;1940832;74;32974;-73
2021/10/09 01:20:15;;;;;;;66.83;61.13;;;;;;;11.54;100.00;102978.45;1940984;74;33038;-71
2021/10/09 01:25:41;;;;;;;72.43;66.23;;;;;;;11.54;100.00;102981.78;1940839;74;33055;-71
2021/10/09 01:31:11;;;;;;;70.67;64.57;;;;;;;11.52;100.00;102979.77;1940986;74;33528;-73
2021/10/09 01:36:40;;;;;;;72.27;65.87;;;;;;;11.43;100.00;102966.73;1940761;74;33061;-73
2021/10/09 01:42:05;;;;;;;71.87;65.53;;;;;;;11.36;100.00;102971.03;1940741;74;33052;-73
2021/10/09 01:47:30;;;;;;;69.33;63.30;;;;;;;11.43;100.00;102968.98;1940815;74;33580;-71
2021/10/09 01:52:55;;;;;;;73.50;67.00;;;;;;;11.42;100.00;102968.66;1940777;74;33130;-71
2021/10/09 01:58:21;;;;;;;69.37;63.20;;;;;;;11.51;100.00;102963.59;1940903;74;32996;-73
2021/10/09 02:03:49;;;;;;;69.63;63.47;;;;;;;11.57;100.00;102965.44;1940687;74;33087;-71
2021/10/09 02:09:16;;;;;;;72.67;66.00;;;;;;;11.52;100.00;102963.06;1940910;74;33552;-74
2021/10/09 02:14:46;;;;;;;63.73;58.47;;;;;;;11.50;100.00;102954.12;1940826;74;32964;-71
2021/10/09 02:25:54;;;;;;;63.27;58.13;;;;;;;11.17;100.00;102941.58;1940914;74;33574;-71
2021/10/09 02:31:19;;;;;;;63.90;58.70;;;;;;;11.03;100.00;102946.22;1940695;74;33021;-73
2021/10/09 02:36:43;;;;;;;61.40;56.23;;;;;;;10.96;100.00;102942.98;1940724;74;32948;-71
2021/10/09 02:42:27;;;;;;;64.47;58.67;;;;;;;11.02;100.00;102934.78;2009580;71;32905;-71
2021/10/09 02:47:52;;;;;;;64.97;59.23;;;;;;;11.07;100.00;102932.98;1940949;74;33122;-73
2021/10/09 02:53:16;;;;;;;69.53;62.77;;;;;;;10.97;100.00;102935.48;1940924;74;33445;-71
2021/10/09 02:58:40;;;;;;;65.50;59.30;;;;;;;10.96;100.00;102937.95;1940893;74;32953;-73
2021/10/09 03:04:05;;;;;;;65.90;59.80;;;;;;;11.15;100.00;102934.58;1940818;74;32962;-70
2021/10/09 03:09:29;;;;;;;68.93;62.63;;;;;;;11.12;100.00;102936.45;1940774;74;32968;-70
2021/10/09 03:14:54;;;;;;;69.20;62.97;;;;;;;11.09;100.00;102936.36;1940797;74;32969;-73
2021/10/09 03:20:18;;;;;;;72.73;65.93;;;;;;;11.13;100.00;102933.41;1940868;74;33135;-71
2021/10/09 03:25:42;;;;;;;68.07;61.90;;;;;;;11.18;100.00;102936.33;1940723;74;32991;-73
2021/10/09 03:31:07;;;;;;;63.57;57.40;;;;;;;11.36;100.00;102934.01;1940686;74;32972;-73
2021/10/09 03:36:31;;;;;;;67.73;61.93;;;;;;;11.37;100.00;102932.39;1940742;74;32962;-71
2021/10/09 03:42:00;;;;;;;69.00;62.27;;;;;;;11.38;100.00;102938.23;1940754;74;32987;-71
2021/10/09 03:47:26;;;;;;;72.33;64.97;;;;;;;11.53;100.00;102935.53;1940692;74;32979;-71
2021/10/09 03:52:48;;;;;;;74.63;67.10;;;;;;;11.52;100.00;102931.90;1940730;74;33093;-74
2021/10/09 03:58:14;;;;;;;67.20;60.53;;;;;;;11.64;100.00;102932.75;1940724;74;32981;-73
2021/10/09 04:03:37;;;;;;;75.60;67.90;;;;;;;11.74;100.00;102926.61;1940734;74;33086;-71
2021/10/09 04:09:02;;;;;;;71.73;64.53;;;;;;;11.68;100.00;102926.18;1940745;74;33078;-71
2021/10/09 04:14:26;;;;;;;68.77;61.67;;;;;;;11.68;100.00;102929.78;1940799;74;33145;-71
2021/10/09 04:19:50;;;;;;;73.43;66.00;;;;;;;11.69;100.00;102937.05;1940833;74;33049;-71
2021/10/09 04:25:13;;;;;;;72.27;64.80;;;;;;;11.96;100.00;102936.05;1940725;74;32989;-71
2021/10/09 04:30:37;;;;;;;74.70;67.47;;;;;;;11.84;100.00;102943.03;1940940;74;33051;-74
2021/10/09 04:36:02;;;;;;;94.10;77.57;;;;;;;12.00;100.00;102933.62;1940918;74;33548;-71
2021/10/09 04:41:26;;;;;;;96.27;78.17;;;;;;;12.25;100.00;102942.00;1940702;74;33039;-71
2021/10/09 04:46:52;;;;;;;76.00;68.07;;;;;;;12.15;100.00;102941.77;1940898;74;33458;-71
2021/10/09 04:52:16;;;;;;;98.00;81.10;;;;;;;12.24;100.00;102939.45;1940768;74;33111;-71
2021/10/09 04:57:45;;;;;;;101.80;84.83;;;;;;;12.26;100.00;102936.73;1940852;74;33066;-70
2021/10/09 05:03:30;;;;;;;103.27;79.80;;;;;;;12.37;100.00;102945.30;2009640;70;33389;-73
2021/10/09 05:08:55;;;;;;;106.57;81.27;;;;;;;12.33;100.00;102939.37;1940740;74;32947;-73
2021/10/09 05:14:19;;;;;;;116.97;80.17;;;;;;;12.29;100.00;102945.14;1940757;74;32971;-73
2021/10/09 05:19:43;;;;;;;110.97;80.73;;;;;;;12.30;100.00;102944.91;1940914;74;33045;-73
2021/10/09 05:25:09;;;;;;;116.07;81.00;;;;;;;12.23;100.00;102947.53;1940945;74;33412;-74
2021/10/09 05:30:35;;;;;;;117.30;77.67;;;;;;;12.19;100.00;102941.57;1940963;74;33035;-72
2021/10/09 05:35:59;;;;;;;120.63;80.23;;;;;;;12.24;100.00;102947.80;1940756;74;32966;-73
2021/10/09 05:41:24;;;;;;;108.33;78.97;;;;;;;12.10;100.00;102943.07;1940734;74;33040;-73
2021/10/09 05:46:48;;;;;;;116.30;82.13;;;;;;;12.05;100.00;102940.70;1940848;74;33531;-74
2021/10/09 05:52:18;;;;;;;124.77;84.87;;;;;;;12.17;100.00;102941.53;1940747;74;32966;-73
2021/10/09 05:57:43;;;;;;;129.13;83.30;;;;;;;12.15;100.00;102947.91;1940800;74;33122;-73
2021/10/09 06:32:14;;;;;;;139.93;85.70;;;;;;;12.15;100.00;102972.41;1940837;74;33080;-71
2021/10/09 06:38:11;;;;;;;143.70;88.57;;;;;;;12.12;100.00;102975.70;1940722;74;32969;-74
2021/10/09 07:00:48;;;;;;;91.63;80.90;;;;;;;11.58;100.00;102990.80;1940925;74;33595;-73
2021/10/09 07:06:22;;;;;;;92.73;82.17;;;;;;;11.61;100.00;103001.45;1940667;74;33024;-73
2021/10/09 07:11:46;;;;;;;93.67;82.07;;;;;;;11.75;100.00;103000.72;1940655;74;32984;-73
2021/10/09 07:17:12;;;;;;;93.07;77.80;;;;;;;11.64;100.00;102997.32;1940951;74;32962;-71
2021/10/09 07:22:37;;;;;;;90.63;79.30;;;;;;;11.84;100.00;103004.84;1940707;74;33051;-71
2021/10/09 07:28:02;;;;;;;88.83;75.90;;;;;;;12.09;100.00;103005.45;1941512;74;33516;-76
2021/10/09 07:33:27;;;;;;;96.80;77.70;;;;;;;12.06;100.00;103014.84;1940738;74;33074;-71
2021/10/09 07:38:51;;;;;;;98.77;73.53;;;;;;;12.14;100.00;103009.75;1940938;74;33043;-71
2021/10/09 07:44:18;;;;;;;96.63;76.77;;;;;;;11.96;100.00;103023.80;1940990;74;33499;-71
2021/10/09 07:49:46;;;;;;;107.83;73.83;;;;;;;12.03;100.00;103027.84;1940794;74;33115;-71
2021/10/09 07:55:11;;;;;;;108.40;74.87;;;;;;;12.00;100.00;103025.55;1941001;74;32980;-73
2021/10/09 08:00:36;;;;;;;122.27;78.03;;;;;;;12.08;100.00;103030.75;1940841;74;32966;-71
2021/10/09 08:06:00;;;;;;;104.37;72.87;;;;;;;11.97;100.00;103028.82;1940756;74;33027;-71
2021/10/09 08:11:25;;;;;;;103.33;68.93;;;;;;;11.91;100.00;103032.56;1940720;74;33044;-73
2021/10/09 08:16:49;;;;;;;104.27;67.40;;;;;;;11.98;100.00;103033.31;1940721;74;32975;-73
2021/10/09 08:22:14;;;;;;;103.60;66.00;;;;;;;11.89;100.00;103039.78;1940889;74;32991;-74
2021/10/09 08:35:22;;;;;;;105.73;73.90;;;;;;;11.94;100.00;103044.63;2009618;71;32799;-71
2021/10/09 08:39:18;;;;;;;124.67;78.07;;;;;;;11.97;100.00;103048.32;1940891;74;33506;-71
2021/10/09 08:44:43;;;;;;;121.20;80.67;;;;;;;12.09;100.00;103047.78;1941041;74;33450;-71
2021/10/09 08:50:10;;;;;;;129.57;81.50;;;;;;;12.31;100.00;103052.51;1940950;74;33579;-74
2021/10/09 08:55:51;;;;;;;123.73;83.33;;;;;;;12.40;100.00;103043.77;1940800;74;32972;-71
2021/10/09 09:01:27;;;;;;;123.97;82.30;;;;;;;12.48;100.00;103042.85;1940776;74;33026;-71
2021/10/09 09:36:23;;;;;;;109.83;75.93;;;;;;;12.57;100.00;103049.75;1940774;74;32958;-71
2021/10/09 09:41:49;;;;;;;121.47;83.00;;;;;;;12.49;100.00;103058.50;1940914;74;32970;-71
2021/10/09 09:47:15;;;;;;;126.03;83.27;;;;;;;12.62;100.00;103055.98;1940752;74;33024;-71
2021/10/09 09:52:42;;;;;;;123.53;81.73;;;;;;;12.83;100.00;103055.88;1940979;74;32975;-71
2021/10/09 09:58:08;;;;;;;121.70;77.70;;;;;;;12.93;100.00;103054.67;1940889;74;32987;-71
2021/10/09 10:03:33;;;;;;;117.90;76.67;;;;;;;12.80;100.00;103057.20;1940995;74;33019;-71
2021/10/09 10:09:00;;;;;;;100.43;75.87;;;;;;;12.87;100.00;103059.86;1940835;74;33550;-73
2021/10/09 10:14:27;;;;;;;106.10;80.20;;;;;;;12.96;100.00;103062.57;1940766;74;32957;-71
2021/10/09 10:20:00;;;;;;;111.80;76.90;;;;;;;13.14;100.00;103054.02;1940780;74;33052;-73
2021/10/09 10:25:52;;;;;;;109.97;75.13;;;;;;;12.78;100.00;103061.65;1940911;74;33047;-73
2021/10/09 10:31:18;;;;;;;103.10;71.90;;;;;;;13.30;100.00;103058.83;1940737;74;33052;-74
2021/10/09 10:36:44;;;;;;;104.40;70.87;;;;;;;13.47;100.00;103050.48;1940957;74;33074;-71
2021/10/09 10:42:28;;;;;;;98.57;70.03;;;;;;;13.74;100.00;103054.86;1940720;74;32971;-71
2021/10/09 10:48:00;;;;;;;99.97;73.23;;;;;;;13.67;100.00;103058.68;1940873;74;32990;-71
2021/10/09 11:00:19;;;;;;;103.83;77.43;;;;;;;13.91;100.00;103060.75;1940965;74;33534;-70
2021/10/09 11:05:44;;;;;;;95.17;72.87;;;;;;;14.14;100.00;103054.14;1941031;74;33539;-69
2021/10/09 11:11:09;;;;;;;91.50;73.70;;;;;;;13.89;100.00;103053.73;1940852;74;33379;-71
2021/10/09 11:16:34;;;;;;;91.00;75.43;;;;;;;14.00;100.00;103047.20;1941023;74;33054;-73
2021/10/09 11:21:58;;;;;;;85.73;73.77;;;;;;;14.44;100.00;103047.66;1940951;74;33530;-71
2021/10/09 11:27:38;;;;;;;82.43;73.30;;;;;;;14.45;100.00;103043.76;1940829;74;33160;-71
2021/10/09 11:33:04;;;;;;;77.97;68.40;;;;;;;14.80;100.00;103039.75;1940946;74;33491;-71
2021/10/09 11:38:33;;;;;;;77.23;69.03;;;;;;;15.18;100.00;103036.85;1940992;74;32975;-70
2021/10/09 11:44:02;;;;;;;75.27;67.33;;;;;;;15.19;100.00;103027.91;1940851;74;32968;-69
2021/10/09 11:55:20;;;;;;;74.60;67.17;;;;;;;15.52;100.00;103015.66;1940827;74;33048;-73
2021/10/09 12:00:46;;;;;;;74.67;67.47;;;;;;;15.68;100.00;103018.88;1940744;74;33065;-70
2021/10/09 12:06:45;;;;;;;78.37;71.03;;;;;;;15.71;100.00;103005.17;1940977;74;32992;-70
2021/10/09 12:12:19;;;;;;;71.27;64.47;;;;;;;15.84;100.00;102996.86;1940771;74;32990;-71
2021/10/09 12:17:45;;;;;;;71.63;64.63;;;;;;;15.92;100.00;102992.16;1940813;74;31176;-70
2021/10/09 12:23:10;;;;;;;76.20;69.27;;;;;;;16.15;100.00;102984.77;1940772;74;31190;-69
2021/10/09 12:28:34;;;;;;;78.67;71.47;;;;;;;16.26;100.00;102970.23;1940875;74;31601;-69
2021/10/09 12:33:59;;;;;;;78.07;71.03;;;;;;;16.38;100.00;102960.51;1940796;74;31056;-70
2021/10/09 12:39:32;;;;;;;76.80;70.30;;;;;;;16.48;100.00;102944.81;1940955;74;31685;-70
2021/10/09 12:44:56;;;;;;;72.30;65.80;;;;;;;16.67;100.00;102927.81;1940918;74;31102;-70
2021/10/09 12:50:21;;;;;;;73.30;66.83;;;;;;;17.17;100.00;102918.09;1941157;74;31502;-69
2021/10/09 12:55:45;;;;;;;75.73;69.10;;;;;;;17.00;100.00;102912.44;1940981;74;31589;-70
2021/10/09 13:01:09;;;;;;;69.17;63.30;;;;;;;17.00;100.00;102899.25;1940792;74;31123;-71
2021/10/09 13:06:34;;;;;;;64.73;59.40;;;;;;;16.91;100.00;102893.89;1940976;74;31107;-72
2021/10/09 13:11:59;;;;;;;69.73;63.67;;;;;;;17.03;100.00;102883.23;1941054;74;31104;-73
2021/10/09 13:17:24;;;;;;;69.50;63.57;;;;;;;17.03;100.00;102874.81;1940784;74;31123;-72
2021/10/09 13:22:49;;;;;;;69.33;63.50;;;;;;;17.19;100.00;102866.70;1940818;74;31199;-73
2021/10/09 13:28:14;;;;;;;67.80;61.83;;;;;;;17.36;100.00;102867.81;1940838;74;31051;-74
2021/10/09 13:33:39;;;;;;;67.77;62.27;;;;;;;17.28;100.00;102861.36;1940808;74;31025;-71
2021/10/09 13:39:03;;;;;;;61.57;56.47;;;;;;;17.26;100.00;102858.83;1941115;74;33491;-72
2021/10/09 13:44:28;;;;;;;62.43;57.43;;;;;;;17.27;100.00;102854.05;1940920;74;31113;-70
2021/10/09 13:49:53;;;;;;;64.70;59.30;;;;;;;17.40;100.00;102847.86;1940828;74;31084;-71
2021/10/09 13:55:20;;;;;;;60.83;55.93;;;;;;;17.33;100.00;102845.88;1941076;74;31125;-69
2021/10/09 14:00:46;;;;;;;58.93;54.13;;;;;;;17.51;100.00;102832.66;1940875;74;31072;-68
2021/10/09 14:06:11;;;;;;;61.73;56.93;;;;;;;17.52;100.00;102839.13;1941071;74;33060;-69
2021/10/09 14:11:36;;;;;;;61.40;56.63;;;;;;;17.29;100.00;102832.12;1940955;74;31502;-73
2021/10/09 14:17:00;;;;;;;56.10;51.87;;;;;;;17.19;100.00;102825.97;1940869;74;33436;-69
2021/10/09 14:22:27;;;;;;;57.10;52.80;;;;;;;17.11;100.00;102829.35;1940795;74;31044;-72
2021/10/09 14:27:51;;;;;;;56.67;52.07;;;;;;;17.09;100.00;102830.73;1940913;74;31137;-71
2021/10/09 14:33:17;;;;;;;56.57;52.13;;;;;;;17.07;100.00;102823.98;1940876;74;31029;-69
2021/10/09 14:38:41;;;;;;;56.63;52.27;;;;;;;17.02;100.00;102827.38;1940827;74;31030;-69
2021/10/09 14:44:11;;;;;;;59.43;54.60;;;;;;;16.98;100.00;102824.30;1940848;74;31080;-68
2021/10/09 14:49:45;;;;;;;58.17;53.53;;;;;;;17.03;100.00;102818.66;1940780;74;31067;-76
2021/10/09 14:55:30;;;;;;;58.93;54.37;;;;;;;17.10;100.00;102814.17;1940807;74;31038;-69
2021/10/09 15:18:08;;;;;;;56.20;51.70;;;;;;;17.13;100.00;102803.22;1940992;74;31019;-72
2021/10/09 15:23:32;;;;;;;59.87;55.17;;;;;;;16.97;100.00;102800.14;1907489;75;31097;-72
2021/10/09 15:28:56;;;;;;;57.27;52.97;;;;;;;17.04;100.00;102799.28;1940792;74;31018;-70
2021/10/09 15:34:23;;;;;;;56.10;51.83;;;;;;;17.23;100.00;102801.81;1940846;74;31201;-75
2021/10/09 15:39:47;;;;;;;54.93;51.00;;;;;;;17.23;100.00;102806.02;1940924;74;31099;-75
2021/10/09 15:45:12;;;;;;;59.30;54.80;;;;;;;17.27;100.00;102805.73;1940729;74;33024;-75
2021/10/09 15:50:56;;;;;;;62.97;57.97;;;;;;;17.19;100.00;102806.31;2009770;71;30854;-76
2021/10/09 15:56:21;;;;;;;73.17;68.05;;;;;;;17.03;100.00;102797.59;1924844;74;28126;-70
2021/10/09 16:01:45;;;;;;;61.83;57.10;;;;;;;16.99;100.00;102809.11;1940831;74;31158;-75
2021/10/09 16:07:11;;;;;;;61.73;57.00;;;;;;;17.03;100.00;102797.59;1941124;74;31656;-75
2021/10/09 16:12:39;;;;;;;65.87;60.77;;;;;;;16.88;100.00;102799.02;1941335;74;31019;-75
2021/10/09 16:18:08;;;;;;;66.97;61.97;;;;;;;16.71;100.00;102802.09;1941607;74;31018;-75
2021/10/09 16:23:33;;;;;;;65.53;60.37;;;;;;;16.52;100.00;102809.31;1907666;75;33641;-70
2021/10/09 16:28:59;;;;;;;65.07;60.07;;;;;;;16.44;100.00;102818.28;1940973;74;33504;-71
2021/10/09 16:34:25;;;;;;;64.30;59.30;;;;;;;16.49;100.00;102818.84;1940881;74;31012;-71
2021/10/09 16:39:50;;;;;;;67.23;62.17;;;;;;;16.38;100.00;102826.41;1940870;74;31078;-71
2021/10/09 16:45:15;;;;;;;68.57;63.27;;;;;;;16.27;100.00;102821.88;1940915;74;31099;-71
2021/10/09 16:50:40;;;;;;;67.67;62.10;;;;;;;16.12;100.00;102830.25;1941021;74;33533;-71
2021/10/09 16:56:06;;;;;;;66.90;61.23;;;;;;;15.95;100.00;102831.86;1940967;74;33462;-71
2021/10/09 17:01:31;;;;;;;72.53;66.93;;;;;;;15.66;100.00;102841.80;1940842;74;33225;-70
2021/10/09 17:06:56;;;;;;;74.53;68.67;;;;;;;15.65;100.00;102853.56;1940846;74;33171;-70
2021/10/09 17:12:20;;;;;;;72.90;66.70;;;;;;;15.55;100.00;102859.64;1940828;74;31020;-75
2021/10/09 17:17:46;;;;;;;71.30;65.40;;;;;;;15.18;100.00;102864.66;1940857;74;33121;-71
2021/10/09 17:23:11;;;;;;;71.00;65.10;;;;;;;15.10;100.00;102864.31;1940815;74;33086;-71
2021/10/09 17:28:37;;;;;;;73.80;67.53;;;;;;;15.03;100.00;102870.96;1940765;74;32988;-68
2021/10/09 17:34:02;;;;;;;70.20;64.33;;;;;;;14.79;100.00;102874.36;1940997;74;33567;-71
2021/10/09 17:39:27;;;;;;;73.40;67.33;;;;;;;14.61;100.00;102884.52;1940968;74;31608;-69
2021/10/09 17:44:51;;;;;;;77.57;70.93;;;;;;;14.17;100.00;102891.50;1940796;74;33044;-69
2021/10/09 17:50:21;;;;;;;77.13;70.73;;;;;;;14.20;100.00;102890.16;1940747;74;32984;-69
2021/10/09 17:55:45;;;;;;;77.73;70.70;;;;;;;14.14;100.00;102897.07;1940980;74;33486;-71
2021/10/09 18:01:12;;;;;;;71.87;65.57;;;;;;;14.28;100.00;102900.87;1940842;74;33080;-68
2021/10/09 18:06:38;;;;;;;77.03;70.00;;;;;;;13.77;100.00;102909.11;1940866;74;33069;-71
2021/10/09 18:12:08;;;;;;;78.60;71.33;;;;;;;13.88;100.00;102914.59;1940818;74;32986;-71
2021/10/09 18:17:33;;;;;;;76.90;69.77;;;;;;;13.46;100.00;102924.00;1940785;74;33085;-71
2021/10/09 18:22:58;;;;;;;73.73;67.10;;;;;;;13.56;100.00;102927.52;1940944;74;33541;-68
2021/10/09 18:28:22;;;;;;;72.23;65.73;;;;;;;13.55;100.00;102930.00;1941006;74;33480;-70
2021/10/09 18:33:47;;;;;;;74.80;68.23;;;;;;;13.34;100.00;102934.95;1940767;74;32975;-70
2021/10/09 18:39:12;;;;;;;75.10;68.37;;;;;;;13.15;100.00;102935.17;1940825;74;33048;-70
2021/10/09 18:44:39;;;;;;;79.90;72.60;;;;;;;13.20;100.00;102935.82;1940817;74;32961;-72
2021/10/09 18:50:04;;;;;;;84.00;76.40;;;;;;;13.23;100.00;102942.28;1940766;74;32964;-69
2021/10/09 18:55:29;;;;;;;85.83;77.57;;;;;;;13.15;100.00;102945.48;1940863;74;32965;-70
2021/10/09 19:00:53;;;;;;;96.73;87.63;;;;;;;13.19;100.00;102957.30;1940773;74;32987;-68
2021/10/09 19:06:18;;;;;;;91.00;82.93;;;;;;;13.25;100.00;102958.79;1941027;74;33023;-68
2021/10/09 19:11:42;;;;;;;87.90;80.07;;;;;;;13.18;100.00;102954.75;1940778;74;32997;-70
2021/10/09 19:17:06;;;;;;;86.97;79.00;;;;;;;13.38;100.00;102966.84;1940940;74;33053;-72
2021/10/09 19:22:31;;;;;;;84.37;76.87;;;;;;;13.65;100.00;102969.23;1940947;74;33030;-70
2021/10/09 19:27:55;;;;;;;79.47;72.83;;;;;;;13.10;100.00;102963.50;1940795;74;33101;-68
2021/10/09 19:33:20;;;;;;;67.33;61.73;;;;;;;12.66;100.00;102970.17;1940945;74;33523;-71
2021/10/09 19:38:44;;;;;;;75.93;69.57;;;;;;;12.57;100.00;102973.62;1940844;74;32983;-70
2021/10/09 19:44:09;;;;;;;79.50;72.20;;;;;;;12.63;100.00;102976.25;1941083;74;33103;-68
2021/10/09 19:49:33;;;;;;;82.43;75.10;;;;;;;12.91;100.00;102974.04;1940922;74;33081;-69
2021/10/09 19:55:07;;;;;;;83.20;75.60;;;;;;;12.81;100.00;102986.92;1940917;74;33540;-71
2021/10/09 20:00:25;;;;;;;85.73;77.87;;;;;;;12.76;100.00;102979.30;1940797;74;33095;-69
2021/10/09 20:05:50;;;;;;;85.63;77.50;;;;;;;12.50;100.00;102982.11;1940861;74;33022;-70
2021/10/09 20:11:18;;;;;;;86.63;78.83;;;;;;;12.52;100.00;102998.59;1940814;74;33084;-72
2021/10/09 20:16:40;;;;;;;85.97;78.10;;;;;;;12.60;100.00;102996.27;1940824;74;32957;-74
2021/10/09 20:22:08;;;;;;;84.33;76.50;;;;;;;12.51;100.00;103007.50;1940851;74;32989;-71
2021/10/09 20:27:32;;;;;;;77.30;70.23;;;;;;;12.37;100.00;103012.19;1940817;74;33032;-69
2021/10/09 20:32:56;;;;;;;75.17;68.50;;;;;;;12.28;100.00;103009.77;1941011;74;33568;-69
2021/10/09 20:38:21;;;;;;;75.97;69.03;;;;;;;12.11;100.00;103015.78;1940814;74;33058;-72
2021/10/09 20:43:45;;;;;;;70.57;64.17;;;;;;;11.83;100.00;103017.91;1940842;74;33059;-69
2021/10/09 20:49:16;;;;;;;70.40;64.20;;;;;;;11.88;100.00;103017.19;1940947;74;33663;-71
2021/10/09 20:54:47;;;;;;;77.00;70.50;;;;;;;11.91;100.00;103017.23;1940829;74;33052;-70
2021/10/09 21:00:13;;;;;;;79.70;73.03;;;;;;;11.73;100.00;103020.44;1940986;74;33457;-74
2021/10/09 21:05:37;;;;;;;68.77;63.07;;;;;;;11.85;100.00;103032.43;1940772;74;33023;-70
2021/10/09 21:11:12;;;;;;;75.43;69.20;;;;;;;11.58;100.00;103024.20;1940956;74;33535;-73
2021/10/09 21:22:28;;;;;;;79.13;72.33;;;;;;;11.52;100.00;103027.93;1940925;74;33463;-71
2021/10/09 21:27:49;;;;;;;80.67;74.00;;;;;;;11.61;100.00;103029.28;1941029;74;33553;-71
2021/10/09 21:33:14;;;;;;;77.87;71.50;;;;;;;11.43;100.00;103027.96;1940913;74;33077;-72
2021/10/09 21:38:38;;;;;;;76.30;69.87;;;;;;;11.27;100.00;103014.73;1940948;74;33472;-71
2021/10/09 21:44:03;;;;;;;78.63;71.67;;;;;;;11.36;100.00;103027.23;1940853;74;33034;-72
2021/10/09 21:49:27;;;;;;;81.13;73.83;;;;;;;11.48;100.00;103025.86;1940770;74;33059;-73
2021/10/09 21:54:52;;;;;;;77.33;70.43;;;;;;;11.43;100.00;103028.81;1941095;74;33570;-70
2021/10/09 22:01:05;;;;;;;83.17;75.77;;;;;;;11.29;100.00;103031.52;1940721;74;33088;-73
2021/10/09 22:17:49;;;;;;;65.37;59.57;;;;;;;11.08;100.00;103029.23;1940877;74;32990;-72
2021/10/09 22:35:18;;;;;;;68.70;62.53;;;;;;;11.02;100.00;103029.34;2009762;71;32802;-71
2021/10/09 22:40:43;;;;;;;76.93;70.03;;;;;;;10.88;100.00;103032.30;1940773;74;32981;-72
2021/10/09 22:46:08;;;;;;;75.57;68.07;;;;;;;11.13;100.00;103038.26;1941053;74;33501;-73
2021/10/09 22:51:38;;;;;;;77.17;69.73;;;;;;;11.23;100.00;103032.45;1940770;74;32965;-72
2021/10/09 22:57:03;;;;;;;78.90;71.47;;;;;;;11.25;100.00;103031.66;1940772;74;33059;-73
2021/10/09 23:02:47;;;;;;;77.27;70.10;;;;;;;11.21;100.00;103036.00;2011412;71;32852;-73
2021/10/09 23:08:11;;;;;;;75.80;68.13;;;;;;;11.26;100.00;103036.14;1940806;74;33082;-73
2021/10/09 23:13:36;;;;;;;75.87;68.83;;;;;;;11.36;100.00;103045.31;1940772;74;32977;-72
2021/10/09 23:19:01;;;;;;;80.73;73.30;;;;;;;11.39;100.00;103044.30;1940781;74;33033;-73
2021/10/09 23:24:25;;;;;;;85.00;76.70;;;;;;;11.38;100.00;103040.37;1940796;74;33076;-72
2021/10/09 23:29:50;;;;;;;82.93;74.67;;;;;;;11.36;100.00;103041.14;1940841;74;33034;-72
2021/10/09 23:35:14;;;;;;;84.23;76.03;;;;;;;11.40;100.00;103038.19;1941009;74;33495;-73
2021/10/09 23:40:39;;;;;;;83.17;74.77;;;;;;;11.46;100.00;103046.99;1940909;74;32980;-72
2021/10/09 23:46:23;;;;;;;84.53;76.13;;;;;;;11.56;100.00;103048.63;2009766;71;32870;-72
2021/10/09 23:51:47;;;;;;;80.50;72.37;;;;;;;11.59;100.00;103050.96;1940796;74;33115;-74
2021/10/09 23:57:12;;;;;;;84.93;76.57;;;;;;;11.52;100.00;103043.78;1940745;74;33080;-71
